Time;durP1;ratioP1;P1;durP2;ratioP2;P2;SDS_P1;SDS_P2;PMS_P1;PMS_P2;Temp;Humidity;BMP_temperature;BMP_pressure;BME280_temperature;BME280_humidity;BME280_pressure;Samples;Min_cycle;Max_cycle;Signal;HPM_P1;HPM_P2
2022/12/30 00:02:48;;;;;;;2.30;1.00;;;11.80;38.70;;;;;;10441355;28;20274;-68
2022/12/30 00:07:52;;;;;;;1.97;1.10;;;11.80;39.40;;;;;;10441705;28;20613;-68
2022/12/30 00:34:22;;;;;;;1.17;0.90;;;11.60;39.00;;;;;;10437786;28;20258;-71
2022/12/30 00:39:25;;;;;;;0.70;0.70;;;11.50;39.80;;;;;;10439700;28;20248;-70
2022/12/30 00:44:28;;;;;;;1.57;0.80;;;11.40;39.10;;;;;;10439126;28;20296;-71
2022/12/30 01:00:14;;;;;;;0.70;0.70;;;11.40;38.80;;;;;;10439907;28;20233;-70
2022/12/30 01:05:19;;;;;;;0.50;0.50;;;11.40;39.00;;;;;;10436526;28;20736;-71
2022/12/30 01:10:22;;;;;;;0.60;0.60;;;11.30;39.20;;;;;;10436561;28;20240;-71
2022/12/30 01:15:25;;;;;;;0.50;0.50;;;11.20;38.90;;;;;;10437585;28;20232;-70
2022/12/30 01:20:30;;;;;;;0.47;0.47;;;11.20;39.00;;;;;;10437323;28;20311;-71
2022/12/30 01:25:33;;;;;;;0.50;0.50;;;11.20;39.40;;;;;;10431324;28;20593;-70
2022/12/30 01:30:36;;;;;;;0.50;0.50;;;11.20;39.10;;;;;;10438609;28;20221;-71
2022/12/30 01:35:40;;;;;;;0.60;0.60;;;11.10;38.90;;;;;;10434046;28;20236;-70
2022/12/30 01:40:44;;;;;;;0.80;0.80;;;11.10;39.50;;;;;;10436897;28;20221;-70
2022/12/30 01:45:51;;;;;;;0.53;0.53;;;11.00;39.30;;;;;;10437746;28;20228;-70
2022/12/30 01:50:58;;;;;;;0.60;0.60;;;10.90;39.90;;;;;;10437189;28;20528;-71
2022/12/30 01:56:06;;;;;;;0.50;0.50;;;10.80;40.60;;;;;;10429916;28;20258;-70
2022/12/30 02:01:09;;;;;;;0.60;0.60;;;10.70;40.50;;;;;;10432083;28;20738;-70
2022/12/30 02:06:17;;;;;;;0.43;0.43;;;10.60;40.50;;;;;;10436964;28;20597;-70
2022/12/30 02:11:20;;;;;;;1.20;0.60;;;10.50;40.40;;;;;;10436557;28;20604;-70
2022/12/30 02:16:44;;;;;;;0.70;0.70;;;10.40;40.30;;;;;;10437223;28;20602;-70
2022/12/30 02:22:00;;;;;;;0.50;0.50;;;10.40;41.60;;;;;;10433577;28;20282;-71
2022/12/30 02:27:23;;;;;;;0.60;0.60;;;10.30;41.80;;;;;;10436960;28;20216;-70
2022/12/30 02:32:37;;;;;;;0.60;0.60;;;10.30;42.00;;;;;;10436432;28;20232;-70
2022/12/30 02:37:50;;;;;;;0.70;0.70;;;10.30;41.80;;;;;;10435671;28;20225;-70
2022/12/30 02:48:31;;;;;;;0.70;0.70;;;10.20;41.90;;;;;;10375591;28;20723;-70
2022/12/30 02:53:38;;;;;;;0.93;0.87;;;10.10;41.80;;;;;;10437264;28;20251;-70
2022/12/30 02:58:49;;;;;;;0.63;0.60;;;10.10;41.40;;;;;;10444781;28;20274;-70
2022/12/30 03:04:06;;;;;;;0.60;0.60;;;10.00;42.50;;;;;;10443844;28;20700;-73
2022/12/30 03:09:18;;;;;;;0.80;0.80;;;10.00;42.30;;;;;;10443873;28;20274;-73
2022/12/30 03:14:27;;;;;;;1.37;0.60;;;10.00;42.90;;;;;;10439187;28;20233;-73
2022/12/30 03:19:37;;;;;;;0.93;0.80;;;10.00;42.80;;;;;;10440906;28;20630;-74
2022/12/30 03:30:04;;;;;;;0.60;0.60;;;10.00;41.30;;;;;;10367544;28;20233;-78
2022/12/30 03:35:09;;;;;;;0.77;0.77;;;10.00;41.70;;;;;;10361398;28;20268;-78
2022/12/30 03:40:17;;;;;;;1.20;1.10;;;10.00;41.90;;;;;;10366142;28;20238;-78
2022/12/30 03:45:21;;;;;;;0.77;0.77;;;10.00;41.90;;;;;;10367087;28;20608;-78
2022/12/30 03:50:25;;;;;;;0.97;0.80;;;10.00;41.50;;;;;;10369806;28;20226;-78
2022/12/30 03:55:28;;;;;;;1.10;0.97;;;10.00;41.80;;;;;;10356098;28;20233;-78
2022/12/30 04:00:32;;;;;;;1.80;1.60;;;10.10;41.50;;;;;;10355126;28;20325;-78
2022/12/30 04:05:39;;;;;;;1.33;0.77;;;10.10;41.30;;;;;;10353554;28;20230;-78
2022/12/30 04:10:42;;;;;;;0.83;0.80;;;10.10;41.50;;;;;;10359764;28;20226;-78
2022/12/30 04:15:49;;;;;;;1.47;0.70;;;10.20;41.20;;;;;;10362691;28;20230;-78
2022/12/30 04:20:53;;;;;;;0.70;0.70;;;10.20;41.60;;;;;;10359178;28;20237;-78
2022/12/30 04:25:57;;;;;;;0.60;0.60;;;10.10;41.50;;;;;;10357121;28;20232;-78
2022/12/30 04:31:00;;;;;;;0.63;0.63;;;10.10;41.00;;;;;;10352386;28;20236;-77
2022/12/30 04:36:05;;;;;;;1.43;0.50;;;10.20;41.00;;;;;;10351907;28;20329;-77
2022/12/30 04:41:08;;;;;;;0.80;0.80;;;10.10;41.40;;;;;;10353595;28;20229;-78
2022/12/30 04:46:11;;;;;;;0.93;0.67;;;10.10;41.00;;;;;;10353988;28;20238;-78
2022/12/30 04:51:16;;;;;;;0.90;0.90;;;10.00;41.20;;;;;;10349678;28;20230;-78
2022/12/30 04:56:19;;;;;;;0.83;0.83;;;9.90;42.40;;;;;;10360545;28;20238;-78
2022/12/30 05:01:27;;;;;;;0.73;0.60;;;9.90;42.10;;;;;;10358193;28;20226;-78
2022/12/30 05:06:32;;;;;;;1.47;1.00;;;9.80;42.00;;;;;;10354507;28;20257;-78
2022/12/30 05:11:35;;;;;;;1.10;1.00;;;9.80;42.40;;;;;;10356729;28;20250;-78
2022/12/30 05:16:38;;;;;;;0.90;0.90;;;9.80;42.10;;;;;;10352754;28;20238;-78
2022/12/30 05:21:43;;;;;;;1.57;1.47;;;9.90;41.90;;;;;;10346969;28;20230;-78
2022/12/30 05:26:46;;;;;;;2.07;1.77;;;9.90;42.20;;;;;;10346545;28;20230;-78
2022/12/30 05:31:49;;;;;;;1.23;1.13;;;9.90;41.70;;;;;;10353196;28;20233;-78
2022/12/30 05:36:54;;;;;;;0.80;0.80;;;9.90;41.70;;;;;;10361186;28;20706;-78
2022/12/30 05:41:57;;;;;;;1.37;1.20;;;9.80;41.90;;;;;;10356767;28;20218;-78
2022/12/30 05:47:00;;;;;;;1.60;1.50;;;9.80;41.70;;;;;;10360084;28;20749;-78
2022/12/30 05:52:04;;;;;;;1.70;1.60;;;9.70;41.70;;;;;;10360345;28;20222;-78
2022/12/30 05:57:08;;;;;;;2.07;1.63;;;9.60;42.00;;;;;;10351016;28;21039;-77
2022/12/30 06:02:11;;;;;;;1.90;1.80;;;9.50;41.70;;;;;;10356696;28;20255;-78
2022/12/30 06:07:16;;;;;;;1.70;1.60;;;9.50;41.90;;;;;;10358705;28;20229;-78
2022/12/30 06:12:19;;;;;;;1.70;1.60;;;9.40;42.20;;;;;;10363873;28;20230;-78
2022/12/30 06:17:22;;;;;;;1.70;1.60;;;9.30;41.90;;;;;;10362701;28;20239;-78
2022/12/30 06:22:27;;;;;;;2.47;1.90;;;9.30;41.90;;;;;;10355940;28;20249;-78
2022/12/30 06:27:30;;;;;;;1.60;1.50;;;9.30;42.20;;;;;;10361990;28;20240;-78
2022/12/30 06:32:33;;;;;;;1.00;1.00;;;9.40;41.70;;;;;;10360880;28;20226;-78
2022/12/30 06:37:38;;;;;;;1.20;1.00;;;9.50;41.70;;;;;;10361192;28;20256;-78
2022/12/30 06:49:05;;;;;;;1.97;1.87;;;9.50;41.70;;;;;;10357767;28;20230;-78
2022/12/30 06:54:10;;;;;;;2.47;1.67;;;9.50;40.50;;;;;;10368419;28;20222;-78
2022/12/30 06:59:13;;;;;;;1.10;1.00;;;9.40;40.90;;;;;;10372538;28;20242;-77
2022/12/30 07:04:16;;;;;;;1.20;1.10;;;9.30;40.80;;;;;;10363473;28;20234;-78
2022/12/30 07:09:21;;;;;;;2.13;1.93;;;9.10;40.80;;;;;;10364207;28;20606;-78
2022/12/30 07:14:24;;;;;;;2.03;1.90;;;9.00;41.20;;;;;;10364948;28;20223;-78
2022/12/30 07:19:27;;;;;;;2.00;1.90;;;8.90;41.20;;;;;;10365367;28;20226;-78
2022/12/30 07:24:32;;;;;;;1.70;1.20;;;8.80;41.50;;;;;;10364028;28;20241;-78
2022/12/30 07:29:35;;;;;;;1.30;1.20;;;8.80;41.90;;;;;;10358874;28;20230;-78
2022/12/30 07:34:38;;;;;;;1.77;1.60;;;8.80;41.80;;;;;;10370506;28;20230;-78
2022/12/30 07:39:47;;;;;;;3.23;2.93;;;8.70;42.00;;;;;;10365173;28;20230;-78
2022/12/30 07:44:50;;;;;;;2.30;1.70;;;8.60;42.40;;;;;;10372876;28;20218;-78
2022/12/30 07:49:54;;;;;;;0.90;0.90;;;8.60;42.40;;;;;;10378010;28;20226;-77
2022/12/30 07:54:59;;;;;;;2.10;1.60;;;8.60;42.70;;;;;;10371399;28;20237;-78
2022/12/30 08:00:03;;;;;;;5.23;4.37;;;8.60;42.70;;;;;;10372383;28;20222;-78
2022/12/30 08:05:06;;;;;;;3.57;1.50;;;8.60;42.40;;;;;;10374897;28;20234;-78
2022/12/30 08:10:11;;;;;;;1.60;1.40;;;8.60;42.60;;;;;;10374609;28;20241;-78
2022/12/30 08:15:14;;;;;;;1.97;1.60;;;8.60;43.00;;;;;;10377955;28;20720;-78
2022/12/30 08:20:18;;;;;;;3.33;1.20;;;8.70;42.90;;;;;;10375048;28;20234;-78
2022/12/30 08:25:22;;;;;;;1.47;1.20;;;8.70;42.90;;;;;;10376966;28;20238;-78
2022/12/30 08:30:25;;;;;;;1.30;1.30;;;8.80;43.30;;;;;;10371035;28;20223;-78
2022/12/30 08:35:28;;;;;;;1.50;1.30;;;8.90;43.20;;;;;;10368911;28;20226;-78
2022/12/30 08:40:34;;;;;;;1.67;1.33;;;9.10;43.20;;;;;;10365114;28;20226;-78
2022/12/30 08:45:37;;;;;;;1.30;1.20;;;9.20;43.50;;;;;;10365926;28;20238;-78
2022/12/30 08:50:42;;;;;;;2.23;1.30;;;9.40;43.10;;;;;;10347235;28;20229;-78
2022/12/30 08:55:46;;;;;;;1.50;1.40;;;9.60;43.30;;;;;;10324897;28;20270;-78
2022/12/30 09:00:50;;;;;;;1.30;1.20;;;9.70;43.10;;;;;;10389851;28;20225;-78
2022/12/30 09:05:53;;;;;;;1.57;1.30;;;9.90;42.90;;;;;;10399944;28;20349;-70
2022/12/30 09:11:07;;;;;;;2.03;1.40;;;10.10;41.90;;;;;;10397480;28;20733;-78
2022/12/30 09:16:13;;;;;;;1.73;1.23;;;10.30;42.10;;;;;;10380207;28;20344;-78
2022/12/30 09:21:16;;;;;;;1.93;1.10;;;10.50;41.80;;;;;;10403186;28;20279;-78
2022/12/30 09:26:23;;;;;;;2.07;1.30;;;10.60;41.40;;;;;;10386485;28;20249;-78
2022/12/30 09:31:26;;;;;;;1.50;1.20;;;10.70;41.60;;;;;;10401424;28;20225;-78
2022/12/30 09:36:30;;;;;;;2.17;1.20;;;10.80;42.20;;;;;;10391783;28;20277;-78
2022/12/30 09:47:14;;;;;;;1.23;1.17;;;11.00;41.90;;;;;;10402270;28;20249;-78
2022/12/30 09:52:26;;;;;;;1.53;1.30;;;11.20;42.20;;;;;;10387742;28;20617;-78
2022/12/30 09:57:34;;;;;;;2.07;1.10;;;11.30;41.70;;;;;;10392736;28;20237;-78
2022/12/30 10:02:52;;;;;;;1.53;1.43;;;11.40;41.70;;;;;;10394326;28;20221;-77
2022/12/30 10:08:04;;;;;;;1.40;1.30;;;11.50;41.70;;;;;;10397295;28;20225;-78
2022/12/30 10:13:15;;;;;;;1.00;1.00;;;11.60;41.30;;;;;;10396695;28;20229;-77
2022/12/30 10:18:55;;;;;;;0.90;0.90;;;11.60;41.30;;;;;;10392617;28;20247;-78
2022/12/30 10:24:11;;;;;;;1.07;1.00;;;11.70;41.40;;;;;;10394133;28;20240;-78
2022/12/30 10:29:19;;;;;;;0.83;0.83;;;11.70;41.40;;;;;;10392501;28;20736;-78
2022/12/30 10:34:28;;;;;;;0.60;0.60;;;11.70;41.40;;;;;;10383067;28;20222;-78
2022/12/30 10:39:34;;;;;;;0.80;0.80;;;11.80;41.50;;;;;;10402504;28;20226;-78
2022/12/30 10:44:47;;;;;;;0.80;0.80;;;11.90;41.60;;;;;;10394363;28;20225;-78
2022/12/30 10:50:03;;;;;;;0.70;0.70;;;11.90;41.70;;;;;;10405525;28;20312;-78
2022/12/30 10:55:21;;;;;;;0.80;0.80;;;12.10;41.50;;;;;;10399499;28;20596;-78
2022/12/30 11:00:26;;;;;;;0.70;0.70;;;12.20;41.00;;;;;;10378554;28;20228;-78
2022/12/30 11:05:33;;;;;;;0.80;0.80;;;12.40;41.30;;;;;;10385709;28;20230;-78
2022/12/30 11:10:36;;;;;;;0.70;0.70;;;12.50;41.10;;;;;;10391907;28;20725;-78
2022/12/30 11:15:53;;;;;;;3.00;2.30;;;12.60;41.20;;;;;;10410806;28;20224;-78
2022/12/30 11:20:58;;;;;;;0.90;0.90;;;12.60;40.60;;;;;;10396275;28;20228;-78
2022/12/30 11:26:04;;;;;;;0.70;0.70;;;12.70;40.60;;;;;;10391605;28;20245;-78
2022/12/30 11:31:11;;;;;;;0.60;0.60;;;12.70;40.60;;;;;;10412815;28;20305;-79
2022/12/30 11:36:21;;;;;;;0.60;0.60;;;12.80;40.30;;;;;;10388203;28;20236;-79
2022/12/30 11:41:29;;;;;;;0.60;0.60;;;12.80;40.20;;;;;;10411550;28;20709;-78
2022/12/30 11:46:36;;;;;;;0.90;0.90;;;12.90;40.40;;;;;;10375219;28;20235;-78
2022/12/30 11:51:44;;;;;;;0.87;0.87;;;13.00;40.60;;;;;;10392701;28;20229;-78
2022/12/30 11:56:54;;;;;;;0.70;0.70;;;13.00;40.00;;;;;;10396694;28;20222;-78
2022/12/30 12:02:01;;;;;;;0.80;0.80;;;13.10;39.90;;;;;;10395853;28;20817;-78
2022/12/30 12:07:06;;;;;;;0.70;0.70;;;13.00;39.70;;;;;;10384342;28;20226;-78
2022/12/30 12:12:13;;;;;;;0.80;0.80;;;13.00;39.80;;;;;;10409138;28;20237;-78
2022/12/30 12:17:30;;;;;;;0.97;0.70;;;13.10;39.90;;;;;;10396344;28;20234;-78
2022/12/30 12:22:40;;;;;;;0.77;0.77;;;13.10;39.80;;;;;;10408253;28;20225;-78
2022/12/30 12:27:43;;;;;;;0.87;0.87;;;13.20;39.70;;;;;;10394343;28;20226;-78
2022/12/30 12:33:08;;;;;;;1.90;0.83;;;13.20;39.80;;;;;;10406157;28;20229;-78
2022/12/30 12:38:36;;;;;;;0.90;0.90;;;13.30;39.30;;;;;;10388478;28;20682;-78
2022/12/30 12:43:52;;;;;;;1.93;1.00;;;13.40;39.30;;;;;;10394405;28;20235;-79
2022/12/30 12:49:33;;;;;;;0.97;0.80;;;13.40;39.20;;;;;;10411532;28;20225;-78
2022/12/30 12:54:58;;;;;;;1.70;1.60;;;13.50;39.10;;;;;;10422360;28;20250;-79
2022/12/30 13:00:11;;;;;;;0.80;0.80;;;13.60;38.60;;;;;;10392486;28;20229;-78
2022/12/30 13:05:22;;;;;;;0.70;0.70;;;13.60;38.70;;;;;;10423656;28;20240;-79
2022/12/30 13:10:36;;;;;;;0.80;0.80;;;13.70;38.60;;;;;;10407678;28;20233;-78
2022/12/30 13:16:03;;;;;;;0.80;0.80;;;13.70;38.20;;;;;;10387288;28;20277;-79
2022/12/30 13:21:12;;;;;;;2.90;2.10;;;13.70;38.10;;;;;;10408746;28;20937;-78
2022/12/30 13:26:15;;;;;;;1.17;1.07;;;13.70;38.00;;;;;;10403846;28;20742;-78
2022/12/30 13:31:29;;;;;;;4.10;1.43;;;13.60;38.40;;;;;;10416548;28;20228;-78
2022/12/30 13:36:40;;;;;;;0.87;0.80;;;13.60;37.90;;;;;;10388443;28;20253;-78
2022/12/30 13:42:00;;;;;;;0.70;0.70;;;13.60;38.20;;;;;;10396846;28;20218;-78
2022/12/30 13:47:06;;;;;;;0.70;0.70;;;13.60;38.00;;;;;;10417082;28;20241;-79
2022/12/30 13:52:30;;;;;;;0.60;0.60;;;13.60;38.10;;;;;;10415395;28;20226;-78
2022/12/30 13:57:36;;;;;;;0.70;0.70;;;13.60;37.80;;;;;;10397912;28;20240;-78
2022/12/30 14:02:48;;;;;;;1.00;1.00;;;13.60;38.30;;;;;;10397897;28;20218;-78
2022/12/30 14:07:53;;;;;;;0.83;0.83;;;13.60;37.90;;;;;;10403528;28;20239;-78
2022/12/30 14:13:14;;;;;;;1.10;1.00;;;13.60;38.40;;;;;;10417020;28;20338;-79
2022/12/30 14:18:20;;;;;;;1.03;1.00;;;13.50;38.20;;;;;;10401323;28;20233;-79
2022/12/30 14:23:47;;;;;;;0.93;0.93;;;13.50;38.30;;;;;;10384768;28;20295;-79
2022/12/30 14:28:52;;;;;;;1.30;1.20;;;13.40;38.20;;;;;;10390633;28;20255;-78
2022/12/30 14:33:59;;;;;;;0.80;0.80;;;13.40;38.40;;;;;;10418484;28;20720;-78
2022/12/30 14:39:05;;;;;;;1.00;1.00;;;13.40;38.30;;;;;;10388662;28;20844;-78
2022/12/30 14:44:22;;;;;;;1.03;1.03;;;13.30;38.10;;;;;;10393166;28;20363;-78
2022/12/30 14:49:35;;;;;;;1.23;1.00;;;13.30;38.00;;;;;;10392669;28;20229;-79
2022/12/30 14:54:44;;;;;;;1.00;1.00;;;13.30;38.30;;;;;;10420344;28;20595;-79
2022/12/30 15:00:19;;;;;;;1.33;1.23;;;13.30;38.20;;;;;;10407088;28;20239;-79
2022/12/30 15:05:25;;;;;;;1.30;1.20;;;13.20;38.10;;;;;;10401128;28;20713;-79
2022/12/30 15:10:39;;;;;;;1.50;1.40;;;13.30;38.30;;;;;;10393618;28;20232;-78
2022/12/30 15:15:48;;;;;;;1.60;1.50;;;13.20;38.10;;;;;;10429926;28;20225;-78
2022/12/30 15:20:51;;;;;;;1.97;1.77;;;13.20;38.30;;;;;;10393295;28;20218;-78
2022/12/30 15:26:00;;;;;;;2.23;2.03;;;13.10;38.30;;;;;;10396179;28;20221;-79
2022/12/30 15:31:04;;;;;;;3.50;1.83;;;13.10;38.30;;;;;;10412063;28;20695;-78
2022/12/30 15:36:07;;;;;;;1.73;1.63;;;13.00;38.40;;;;;;10408360;28;20226;-78
2022/12/30 15:41:14;;;;;;;3.10;2.80;;;12.90;38.40;;;;;;10408064;28;20302;-78
2022/12/30 15:46:24;;;;;;;3.80;3.50;;;12.90;38.50;;;;;;10406174;28;20229;-78
2022/12/30 15:51:36;;;;;;;3.37;3.07;;;12.80;38.40;;;;;;10418778;28;20258;-78
2022/12/30 15:56:43;;;;;;;7.63;7.03;;;12.80;38.40;;;;;;10413619;28;20249;-78
2022/12/30 16:01:47;;;;;;;3.80;3.40;;;12.80;38.60;;;;;;10381674;28;20222;-78
2022/12/30 16:06:52;;;;;;;2.50;2.30;;;12.80;38.70;;;;;;10396992;28;20218;-78
2022/12/30 16:11:57;;;;;;;4.77;4.33;;;12.80;38.70;;;;;;10395793;28;20217;-77
2022/12/30 16:17:21;;;;;;;3.27;2.97;;;12.70;38.60;;;;;;10377050;28;20226;-77
2022/12/30 16:22:27;;;;;;;2.03;1.93;;;12.60;38.70;;;;;;10399304;28;20236;-78
2022/12/30 16:27:37;;;;;;;4.03;3.63;;;12.60;38.70;;;;;;10402863;28;20259;-77
2022/12/30 16:32:40;;;;;;;5.17;4.60;;;12.60;38.90;;;;;;10406239;28;20289;-77
2022/12/30 16:37:43;;;;;;;6.33;5.40;;;12.60;38.90;;;;;;10402098;28;20276;-77
2022/12/30 16:42:55;;;;;;;9.80;8.80;;;12.50;38.80;;;;;;10398625;28;20277;-77
2022/12/30 16:47:58;;;;;;;4.93;4.43;;;12.60;38.90;;;;;;10400154;28;20229;-77
2022/12/30 16:53:01;;;;;;;5.17;4.77;;;12.50;38.90;;;;;;10405620;28;20586;-77
2022/12/30 16:58:09;;;;;;;4.43;3.80;;;12.50;39.00;;;;;;10399665;28;20226;-77
2022/12/30 17:03:17;;;;;;;4.93;4.53;;;12.50;39.00;;;;;;10398304;28;20232;-77
2022/12/30 17:08:22;;;;;;;5.23;4.73;;;12.50;39.00;;;;;;10391810;28;20236;-78
2022/12/30 17:13:34;;;;;;;3.00;2.80;;;12.50;39.20;;;;;;10397662;28;20226;-78
2022/12/30 17:18:40;;;;;;;3.70;3.40;;;12.50;39.40;;;;;;10394287;28;20226;-78
2022/12/30 17:23:45;;;;;;;4.20;2.43;;;12.50;39.40;;;;;;10402059;28;20222;-78
2022/12/30 17:28:50;;;;;;;3.40;2.33;;;12.50;39.50;;;;;;10404632;28;20244;-78
2022/12/30 17:33:55;;;;;;;3.07;2.47;;;12.50;39.70;;;;;;10390886;28;20236;-78
2022/12/30 17:39:01;;;;;;;3.43;2.97;;;12.50;39.80;;;;;;10394821;28;20222;-78
2022/12/30 17:44:06;;;;;;;6.63;3.50;;;12.50;39.70;;;;;;10431986;28;20217;-78
2022/12/30 17:49:10;;;;;;;3.47;3.20;;;12.60;40.00;;;;;;10434920;28;20236;-77
2022/12/30 17:54:13;;;;;;;4.93;4.53;;;12.60;39.90;;;;;;10441136;28;20236;-78
2022/12/30 17:59:17;;;;;;;5.23;4.83;;;12.60;39.80;;;;;;10421545;28;20236;-78
2022/12/30 18:04:21;;;;;;;4.67;4.27;;;12.50;40.00;;;;;;10435078;28;20240;-78
2022/12/30 18:09:24;;;;;;;7.50;6.40;;;12.50;39.80;;;;;;10425257;28;20232;-78
2022/12/30 18:14:28;;;;;;;6.27;5.30;;;12.50;40.00;;;;;;10437404;28;20720;-78
2022/12/30 18:19:33;;;;;;;4.17;3.77;;;12.40;40.20;;;;;;10430466;28;20267;-78
2022/12/30 18:24:36;;;;;;;2.90;2.70;;;12.40;40.10;;;;;;10437719;28;20236;-78
2022/12/30 18:29:41;;;;;;;3.60;3.00;;;12.30;40.10;;;;;;10436527;28;20225;-78
2022/12/30 18:34:44;;;;;;;2.73;2.53;;;12.20;40.60;;;;;;10421874;28;20233;-78
2022/12/30 18:39:47;;;;;;;3.20;2.90;;;12.20;40.40;;;;;;10433805;28;20233;-78
2022/12/30 18:44:52;;;;;;;5.10;4.43;;;12.20;40.50;;;;;;10429077;28;20222;-78
2022/12/30 18:49:55;;;;;;;3.33;3.00;;;12.20;40.90;;;;;;10440158;28;20274;-77
2022/12/30 18:54:58;;;;;;;3.40;3.10;;;12.10;40.60;;;;;;10436959;28;20594;-77
2022/12/30 19:00:03;;;;;;;3.10;2.80;;;12.00;40.80;;;;;;10426772;28;20708;-78
2022/12/30 19:05:07;;;;;;;3.83;3.43;;;12.00;41.70;;;;;;10423645;28;20228;-77
2022/12/30 19:10:10;;;;;;;4.50;2.97;;;12.00;41.30;;;;;;10432655;28;20662;-78
2022/12/30 19:15:15;;;;;;;4.70;3.00;;;11.90;41.50;;;;;;10432934;28;20225;-78
2022/12/30 19:20:18;;;;;;;4.63;2.87;;;11.90;41.60;;;;;;10439872;28;20241;-78
2022/12/30 19:25:21;;;;;;;3.80;2.93;;;11.90;41.60;;;;;;10437983;28;20234;-78
2022/12/30 19:30:25;;;;;;;3.90;2.83;;;11.90;41.60;;;;;;10417882;28;20236;-78
2022/12/30 19:35:29;;;;;;;2.60;2.40;;;11.90;41.60;;;;;;10434179;28;20302;-78
2022/12/30 19:40:35;;;;;;;4.87;3.50;;;11.90;41.60;;;;;;10436618;28;20224;-78
2022/12/30 19:45:41;;;;;;;2.93;2.70;;;11.80;41.50;;;;;;10432320;28;20237;-78
2022/12/30 19:50:44;;;;;;;3.37;2.37;;;11.80;42.00;;;;;;10436011;28;20721;-78
2022/12/30 19:55:47;;;;;;;3.03;2.60;;;11.80;41.50;;;;;;10431483;28;20615;-78
2022/12/30 20:00:52;;;;;;;5.97;3.40;;;11.80;41.80;;;;;;10438812;28;20228;-77
2022/12/30 20:05:55;;;;;;;4.03;3.73;;;11.70;42.40;;;;;;10435525;28;20228;-78
2022/12/30 20:11:04;;;;;;;3.47;3.10;;;11.70;42.20;;;;;;10446525;28;20224;-78
2022/12/30 20:16:31;;;;;;;3.47;3.17;;;11.70;43.00;;;;;;10446377;28;20700;-78
2022/12/30 20:21:36;;;;;;;4.30;3.90;;;11.70;43.00;;;;;;10430873;28;20244;-78
2022/12/30 20:26:40;;;;;;;6.90;6.27;;;11.80;42.90;;;;;;10432846;28;20221;-78
2022/12/30 20:31:46;;;;;;;4.40;4.00;;;11.90;43.10;;;;;;10441363;28;20229;-78
2022/12/30 20:36:51;;;;;;;3.87;3.53;;;11.90;43.30;;;;;;10445894;28;20232;-78
2022/12/30 20:41:56;;;;;;;5.90;5.30;;;12.00;42.90;;;;;;10443949;28;20232;-77
2022/12/30 20:47:02;;;;;;;3.40;2.90;;;12.10;43.10;;;;;;10435751;28;20283;-79
2022/12/30 20:52:05;;;;;;;2.30;2.10;;;12.20;43.30;;;;;;10449597;28;20229;-79
2022/12/30 20:57:09;;;;;;;1.90;1.67;;;12.20;43.40;;;;;;10430514;28;20229;-78
2022/12/30 21:02:13;;;;;;;1.83;1.73;;;12.30;43.80;;;;;;10442104;28;20225;-79
2022/12/30 21:07:16;;;;;;;1.63;1.53;;;12.50;44.30;;;;;;10437787;28;20237;-79
2022/12/30 21:12:19;;;;;;;1.50;1.40;;;12.50;43.80;;;;;;10432945;28;20225;-79
2022/12/30 21:17:24;;;;;;;1.50;1.40;;;12.60;43.90;;;;;;10436691;28;20252;-79
2022/12/30 21:22:27;;;;;;;1.50;1.40;;;12.70;44.30;;;;;;10428300;28;20229;-79
2022/12/30 21:27:30;;;;;;;2.63;1.13;;;12.90;44.00;;;;;;10431751;28;20732;-79
2022/12/30 21:32:35;;;;;;;1.20;1.20;;;13.00;44.00;;;;;;10437441;28;20578;-79
2022/12/30 21:37:38;;;;;;;1.37;1.30;;;13.10;44.30;;;;;;10434280;28;20244;-79
2022/12/30 22:04:47;;;;;;;1.40;1.23;;;13.40;44.20;;;;;;10432893;28;20225;-78
2022/12/30 22:09:50;;;;;;;1.07;1.07;;;13.50;43.70;;;;;;10430205;28;20541;-79
2022/12/30 22:14:54;;;;;;;1.83;1.23;;;13.50;43.50;;;;;;10427527;28;20225;-79
2022/12/30 22:19:59;;;;;;;1.57;1.20;;;13.50;43.70;;;;;;10426766;28;20225;-79
2022/12/30 22:25:02;;;;;;;1.13;1.10;;;13.60;43.80;;;;;;10426913;28;20701;-78
2022/12/30 22:30:06;;;;;;;1.40;1.30;;;13.60;43.40;;;;;;10432839;28;20241;-79
2022/12/30 22:35:10;;;;;;;1.27;1.20;;;13.70;43.40;;;;;;10427665;28;20229;-79
2022/12/30 22:40:14;;;;;;;1.43;1.33;;;13.70;43.50;;;;;;10431795;28;20752;-79
2022/12/30 22:45:18;;;;;;;2.30;1.40;;;13.80;43.30;;;;;;10436818;28;20300;-79
2022/12/30 22:50:25;;;;;;;1.20;1.10;;;13.70;43.20;;;;;;10432100;28;22982;-79
2022/12/30 22:55:30;;;;;;;1.20;1.10;;;13.70;43.20;;;;;;10434406;28;20225;-79
2022/12/30 23:00:33;;;;;;;0.90;0.90;;;13.80;43.30;;;;;;10439923;28;20222;-79
2022/12/30 23:05:43;;;;;;;1.23;1.13;;;13.80;43.30;;;;;;10432936;28;20226;-79
2022/12/30 23:10:46;;;;;;;0.83;0.80;;;13.90;43.70;;;;;;10432866;28;20324;-79
2022/12/30 23:16:07;;;;;;;0.90;0.90;;;13.90;43.40;;;;;;10442444;28;20225;-79
2022/12/30 23:21:14;;;;;;;0.93;0.90;;;14.00;43.40;;;;;;10434493;28;20224;-79
2022/12/30 23:26:17;;;;;;;0.90;0.90;;;14.00;43.60;;;;;;10438069;28;20729;-79
2022/12/30 23:31:21;;;;;;;1.00;0.90;;;14.10;43.60;;;;;;10447102;28;20229;-78
2022/12/30 23:36:25;;;;;;;0.77;0.77;;;14.20;43.60;;;;;;10444820;28;20913;-79
2022/12/30 23:41:28;;;;;;;0.77;0.77;;;14.20;43.60;;;;;;10446076;28;20603;-77
2022/12/30 23:46:32;;;;;;;0.70;0.70;;;14.30;43.70;;;;;;10437119;28;20732;-76
2022/12/30 23:51:36;;;;;;;0.80;0.80;;;14.30;43.70;;;;;;10437117;28;20225;-77
2022/12/30 23:56:40;;;;;;;0.80;0.80;;;14.30;43.70;;;;;;10433539;28;20585;-78
